Time;durP1;ratioP1;P1;durP2;ratioP2;P2;SDS_P1;SDS_P2;PMS_P1;PMS_P2;Temp;Humidity;BMP_temperature;BMP_pressure;BME280_temperature;BME280_humidity;BME280_pressure;Samples;Min_cycle;Max_cycle;Signal;HPM_P1;HPM_P2
2022/11/04 00:02:06;;;;;;;2.97;2.35;;;;;;;;;;5052173;28;20229;-84
2022/11/04 00:04:35;;;;;;;2.15;1.85;;;;;;;;;;5052033;28;20231;-85
2022/11/04 00:08:22;;;;;;;2.92;2.10;;;;;;;;;;5051976;28;20229;-85
2022/11/04 00:09:50;;;;;;;2.80;2.03;;;;;;;;;;5051663;28;20206;-84
2022/11/04 00:12:25;;;;;;;2.10;2.00;;;;;;;;;;5052127;28;20346;-87
2022/11/04 00:17:17;;;;;;;2.00;1.90;;;;;;;;;;5051780;28;20307;-85
2022/11/04 00:17:39;;;;;;;2.35;2.15;;;;;;;;;;5051547;28;20201;-85
2022/11/04 00:28:45;;;;;;;1.52;1.42;;;;;;;;;;5051908;28;20665;-86
2022/11/04 00:33:59;;;;;;;1.33;1.23;;;;;;;;;;5055606;28;20204;-87
2022/11/04 00:36:31;;;;;;;1.30;1.20;;;;;;;;;;5056115;28;20263;-86
2022/11/04 00:38:59;;;;;;;1.10;0.98;;;;;;;;;;5056029;28;20208;-87
2022/11/04 00:41:27;;;;;;;1.00;1.00;;;;;;;;;;5056031;28;20261;-87
2022/11/04 00:43:55;;;;;;;1.30;1.20;;;;;;;;;;5056109;28;20201;-86
2022/11/04 00:46:23;;;;;;;1.25;1.17;;;;;;;;;;5055709;28;20229;-86
2022/11/04 00:48:51;;;;;;;1.50;1.40;;;;;;;;;;5055922;28;20743;-86
2022/11/04 00:51:20;;;;;;;1.63;1.40;;;;;;;;;;5055655;28;20338;-86
2022/11/04 00:53:49;;;;;;;1.40;1.30;;;;;;;;;;5055934;28;20202;-86
2022/11/04 00:56:18;;;;;;;1.15;1.15;;;;;;;;;;5055976;28;20227;-86
2022/11/04 00:58:45;;;;;;;2.38;1.65;;;;;;;;;;5055559;28;20248;-87
2022/11/04 01:01:16;;;;;;;1.25;1.25;;;;;;;;;;5055496;28;20200;-87
2022/11/04 01:03:44;;;;;;;1.23;1.20;;;;;;;;;;5055665;28;20256;-86
2022/11/04 01:06:13;;;;;;;1.40;1.30;;;;;;;;;;5055564;28;20305;-86
2022/11/04 01:08:40;;;;;;;1.20;1.10;;;;;;;;;;5055268;28;20205;-86
2022/11/04 01:11:12;;;;;;;1.00;1.00;;;;;;;;;;5055312;28;20700;-86
2022/11/04 01:13:40;;;;;;;1.00;1.00;;;;;;;;;;5055253;28;20202;-86
2022/11/04 01:16:10;;;;;;;1.10;1.10;;;;;;;;;;5086529;22;20225;-84
2022/11/04 01:18:38;;;;;;;1.30;1.23;;;;;;;;;;5084507;28;20279;-82
2022/11/04 01:21:08;;;;;;;1.38;1.27;;;;;;;;;;5096860;28;20211;-82
2022/11/04 01:23:36;;;;;;;1.60;1.50;;;;;;;;;;5096591;28;20726;-83
2022/11/04 01:26:06;;;;;;;1.27;1.17;;;;;;;;;;5096586;28;20252;-83
2022/11/04 01:28:35;;;;;;;1.38;1.27;;;;;;;;;;5096721;28;20586;-83
2022/11/04 01:31:07;;;;;;;1.55;1.45;;;;;;;;;;5096723;28;20692;-83
2022/11/04 01:33:34;;;;;;;1.15;1.15;;;;;;;;;;5096316;28;20311;-84
2022/11/04 01:36:02;;;;;;;0.98;0.98;;;;;;;;;;5095839;28;20315;-84
2022/11/04 01:38:30;;;;;;;1.00;1.00;;;;;;;;;;5096038;28;20346;-83
2022/11/04 01:40:58;;;;;;;1.15;1.15;;;;;;;;;;5096459;28;20199;-84
2022/11/04 01:43:46;;;;;;;0.90;0.90;;;;;;;;;;5095874;28;20202;-82
2022/11/04 01:46:29;;;;;;;1.67;1.30;;;;;;;;;;5092477;28;20316;-83
2022/11/04 01:49:01;;;;;;;1.40;1.30;;;;;;;;;;5075825;28;20285;-83
2022/11/04 01:51:30;;;;;;;1.42;1.35;;;;;;;;;;5076218;28;20232;-82
2022/11/04 01:53:58;;;;;;;0.90;0.90;;;;;;;;;;5076025;28;20197;-83
2022/11/04 01:56:26;;;;;;;1.30;1.20;;;;;;;;;;5076144;28;20252;-82
2022/11/04 01:58:59;;;;;;;1.27;1.25;;;;;;;;;;5074981;28;20391;-83
2022/11/04 02:01:27;;;;;;;2.22;2.00;;;;;;;;;;5076220;28;20280;-83
2022/11/04 02:04:24;;;;;;;2.38;2.17;;;;;;;;;;5075780;28;20284;-83
2022/11/04 02:06:48;;;;;;;1.77;1.67;;;;;;;;;;5075354;28;20227;-84
2022/11/04 02:09:17;;;;;;;1.35;1.27;;;;;;;;;;5075120;28;20201;-82
2022/11/04 02:14:31;;;;;;;1.48;1.35;;;;;;;;;;5075261;28;20212;-84
2022/11/04 02:17:07;;;;;;;1.20;1.10;;;;;;;;;;5075321;28;20252;-83
2022/11/04 02:19:59;;;;;;;0.93;0.90;;;;;;;;;;5075117;28;20203;-85
2022/11/04 02:23:35;;;;;;;1.52;1.42;;;;;;;;;;5075368;28;20205;-82
2022/11/04 02:27:02;;;;;;;1.50;1.40;;;;;;;;;;5013953;28;20357;-83
2022/11/04 02:30:02;;;;;;;1.27;1.10;;;;;;;;;;5070717;28;20284;-83
2022/11/04 02:32:44;;;;;;;1.23;1.13;;;;;;;;;;5077792;28;20225;-83
2022/11/04 02:35:19;;;;;;;1.02;1.00;;;;;;;;;;5099044;28;20221;-84
2022/11/04 02:37:56;;;;;;;1.02;0.93;;;;;;;;;;5099140;28;20208;-83
2022/11/04 02:40:33;;;;;;;0.80;0.80;;;;;;;;;;5098832;28;20185;-82
2022/11/04 02:43:03;;;;;;;1.20;1.00;;;;;;;;;;5098411;28;20200;-82
2022/11/04 02:45:38;;;;;;;0.90;0.90;;;;;;;;;;5105726;28;20200;-84
2022/11/04 02:48:10;;;;;;;2.08;1.70;;;;;;;;;;5098739;28;20192;-83
2022/11/04 02:50:43;;;;;;;2.15;1.60;;;;;;;;;;5097658;28;20193;-83
2022/11/04 02:53:17;;;;;;;1.40;0.90;;;;;;;;;;5089817;28;20284;-85
2022/11/04 02:55:48;;;;;;;2.05;1.70;;;;;;;;;;5077881;28;20308;-85
2022/11/04 02:58:20;;;;;;;1.38;1.17;;;;;;;;;;5088785;28;20197;-82
2022/11/04 03:00:51;;;;;;;1.40;1.30;;;;;;;;;;5099028;28;20201;-84
2022/11/04 03:03:23;;;;;;;0.90;0.90;;;;;;;;;;5098838;28;20239;-83
2022/11/04 03:05:52;;;;;;;4.72;1.00;;;;;;;;;;5098601;28;20205;-82
2022/11/04 03:08:26;;;;;;;1.50;1.40;;;;;;;;;;5098053;28;20200;-82
2022/11/04 03:10:57;;;;;;;3.03;1.60;;;;;;;;;;5098754;28;20248;-82
2022/11/04 03:13:29;;;;;;;1.23;1.13;;;;;;;;;;5098602;28;20217;-83
2022/11/04 03:16:01;;;;;;;2.63;1.40;;;;;;;;;;5089433;28;20708;-84
2022/11/04 03:18:36;;;;;;;1.15;1.00;;;;;;;;;;5079944;28;20275;-85
2022/11/04 03:21:09;;;;;;;1.00;0.90;;;;;;;;;;5079798;28;20225;-84
2022/11/04 03:23:37;;;;;;;1.48;1.38;;;;;;;;;;5077362;28;20203;-84
2022/11/04 03:26:13;;;;;;;1.25;1.15;;;;;;;;;;5076858;28;20600;-85
2022/11/04 03:28:47;;;;;;;1.35;1.25;;;;;;;;;;5076619;28;20296;-84
2022/11/04 03:31:22;;;;;;;1.15;1.05;;;;;;;;;;5076173;28;20216;-83
2022/11/04 03:33:52;;;;;;;2.00;1.48;;;;;;;;;;5075219;28;20231;-84
2022/11/04 03:36:20;;;;;;;1.70;1.33;;;;;;;;;;5075706;28;20355;-85
2022/11/04 03:38:47;;;;;;;0.70;0.70;;;;;;;;;;5075348;28;20327;-84
2022/11/04 03:41:18;;;;;;;0.80;0.77;;;;;;;;;;5075278;28;20681;-85
2022/11/04 03:43:46;;;;;;;0.50;0.50;;;;;;;;;;5075231;28;20207;-83
2022/11/04 03:46:14;;;;;;;0.68;0.60;;;;;;;;;;5074081;28;20320;-84
2022/11/04 03:48:44;;;;;;;0.55;0.55;;;;;;;;;;5074619;28;20197;-83
2022/11/04 03:51:12;;;;;;;0.47;0.47;;;;;;;;;;5074908;28;20205;-83
2022/11/04 03:53:41;;;;;;;0.60;0.60;;;;;;;;;;5074432;28;20231;-83
2022/11/04 03:56:43;;;;;;;0.70;0.70;;;;;;;;;;5073995;28;20221;-83
2022/11/04 03:59:38;;;;;;;0.70;0.70;;;;;;;;;;5063442;28;20243;-83
2022/11/04 04:02:15;;;;;;;0.70;0.70;;;;;;;;;;5077893;28;20192;-83
2022/11/04 04:04:48;;;;;;;0.57;0.57;;;;;;;;;;5093862;28;20557;-83
2022/11/04 04:07:20;;;;;;;0.80;0.80;;;;;;;;;;5093508;28;20596;-82
2022/11/04 04:09:53;;;;;;;0.90;0.90;;;;;;;;;;5093652;28;20716;-82
2022/11/04 04:12:30;;;;;;;0.73;0.73;;;;;;;;;;5093485;28;20287;-82
2022/11/04 04:15:06;;;;;;;0.82;0.82;;;;;;;;;;5093481;28;20278;-82
2022/11/04 04:17:39;;;;;;;0.52;0.52;;;;;;;;;;5078653;28;20236;-83
2022/11/04 04:20:11;;;;;;;0.57;0.57;;;;;;;;;;5073470;28;20205;-83
2022/11/04 04:22:41;;;;;;;0.50;0.50;;;;;;;;;;5072905;28;20313;-82
2022/11/04 04:27:57;;;;;;;0.57;0.57;;;;;;;;;;5072774;28;20208;-82
2022/11/04 04:30:24;;;;;;;0.60;0.60;;;;;;;;;;5072745;28;20292;-83
2022/11/04 04:32:56;;;;;;;0.63;0.63;;;;;;;;;;5072501;28;20295;-83
2022/11/04 04:35:43;;;;;;;0.85;0.80;;;;;;;;;;5072345;28;20362;-84
2022/11/04 04:46:41;;;;;;;0.63;0.63;;;;;;;;;;5072436;28;20246;-82
2022/11/04 04:49:10;;;;;;;0.70;0.70;;;;;;;;;;5072387;28;20299;-83
2022/11/04 04:51:43;;;;;;;0.40;0.40;;;;;;;;;;5073039;28;20288;-83
2022/11/04 04:54:10;;;;;;;0.60;0.60;;;;;;;;;;5072963;28;20666;-82
2022/11/04 04:56:38;;;;;;;0.68;0.68;;;;;;;;;;5072861;28;20221;-83
2022/11/04 04:59:06;;;;;;;0.35;0.35;;;;;;;;;;5072350;28;20208;-82
2022/11/04 05:01:33;;;;;;;0.77;0.70;;;;;;;;;;5072782;28;20662;-82
2022/11/04 05:04:01;;;;;;;2.20;0.55;;;;;;;;;;5072298;28;20278;-83
2022/11/04 05:06:30;;;;;;;0.50;0.50;;;;;;;;;;5072617;28;20657;-82
2022/11/04 05:08:57;;;;;;;0.68;0.68;;;;;;;;;;5073273;28;20236;-82
2022/11/04 05:11:25;;;;;;;0.43;0.43;;;;;;;;;;5072487;28;20255;-81
2022/11/04 05:13:52;;;;;;;0.57;0.57;;;;;;;;;;5072298;28;20311;-83
2022/11/04 05:16:20;;;;;;;0.68;0.68;;;;;;;;;;5071986;28;20306;-83
2022/11/04 05:18:47;;;;;;;0.80;0.70;;;;;;;;;;5073129;28;20292;-81
2022/11/04 05:21:16;;;;;;;0.50;0.50;;;;;;;;;;5076234;28;20215;-83
2022/11/04 05:23:45;;;;;;;0.60;0.60;;;;;;;;;;5077067;28;20204;-82
2022/11/04 05:26:13;;;;;;;0.65;0.65;;;;;;;;;;5076335;28;20225;-82
2022/11/04 05:28:41;;;;;;;0.70;0.70;;;;;;;;;;5076728;28;20200;-83
2022/11/04 05:31:08;;;;;;;0.70;0.70;;;;;;;;;;5076104;28;20409;-83
2022/11/04 05:33:36;;;;;;;0.70;0.70;;;;;;;;;;5076550;28;20283;-83
2022/11/04 05:36:08;;;;;;;0.60;0.60;;;;;;;;;;5076677;28;20224;-82
2022/11/04 05:38:36;;;;;;;0.68;0.68;;;;;;;;;;5076563;28;20288;-83
2022/11/04 05:41:06;;;;;;;5.95;4.45;;;;;;;;;;5078837;28;20249;-82
2022/11/04 05:43:34;;;;;;;3.45;2.53;;;;;;;;;;5085465;28;20204;-81
2022/11/04 05:46:02;;;;;;;4.80;3.90;;;;;;;;;;5085459;28;20248;-82
2022/11/04 05:48:30;;;;;;;4.18;2.42;;;;;;;;;;5086228;28;20235;-82
2022/11/04 05:50:57;;;;;;;5.07;3.05;;;;;;;;;;5086711;28;20284;-81
2022/11/04 05:53:25;;;;;;;2.47;1.73;;;;;;;;;;5085966;28;20274;-81
2022/11/04 05:55:53;;;;;;;4.25;2.55;;;;;;;;;;5087288;28;20263;-82
2022/11/04 05:58:22;;;;;;;3.20;1.67;;;;;;;;;;5085905;28;20296;-81
2022/11/04 06:00:49;;;;;;;2.38;1.35;;;;;;;;;;5086916;28;20287;-82
2022/11/04 06:03:17;;;;;;;1.10;1.10;;;;;;;;;;5088397;28;20261;-82
2022/11/04 06:05:44;;;;;;;0.95;0.95;;;;;;;;;;5086566;28;20255;-81
2022/11/04 06:08:12;;;;;;;1.27;1.17;;;;;;;;;;5090064;28;20251;-81
2022/11/04 06:10:39;;;;;;;1.00;1.00;;;;;;;;;;5098620;28;20204;-80
2022/11/04 06:13:07;;;;;;;2.38;1.60;;;;;;;;;;5098506;28;20205;-80
2022/11/04 06:15:36;;;;;;;1.13;1.10;;;;;;;;;;5098272;28;20229;-81
2022/11/04 06:18:03;;;;;;;3.08;2.45;;;;;;;;;;5098282;28;20205;-81
2022/11/04 06:20:31;;;;;;;2.97;2.10;;;;;;;;;;5098129;28;20209;-81
2022/11/04 06:22:58;;;;;;;6.18;4.40;;;;;;;;;;5089658;28;20240;-83
2022/11/04 06:25:26;;;;;;;4.93;3.33;;;;;;;;;;5085474;28;20221;-82
2022/11/04 06:27:53;;;;;;;3.85;2.88;;;;;;;;;;5102148;28;20281;-83
2022/11/04 06:30:22;;;;;;;4.30;2.33;;;;;;;;;;5103189;28;20196;-83
2022/11/04 06:32:51;;;;;;;1.80;1.48;;;;;;;;;;5105293;28;20204;-84
2022/11/04 06:35:19;;;;;;;1.20;1.00;;;;;;;;;;5104394;28;20265;-84
2022/11/04 06:37:46;;;;;;;1.30;1.20;;;;;;;;;;5080788;28;20258;-82
2022/11/04 06:40:14;;;;;;;1.58;1.40;;;;;;;;;;5083960;28;20711;-82
2022/11/04 06:42:43;;;;;;;1.70;1.60;;;;;;;;;;5094787;28;20260;-83
2022/11/04 06:45:11;;;;;;;1.25;1.23;;;;;;;;;;5104753;28;20245;-84
2022/11/04 06:47:39;;;;;;;1.10;1.10;;;;;;;;;;5085717;28;20208;-84
2022/11/04 06:50:09;;;;;;;1.25;1.15;;;;;;;;;;5084066;28;20201;-84
2022/11/04 06:52:37;;;;;;;0.88;0.88;;;;;;;;;;5083123;28;20260;-83
2022/11/04 06:55:06;;;;;;;1.38;1.27;;;;;;;;;;5095814;28;20223;-83
2022/11/04 06:57:33;;;;;;;1.30;1.15;;;;;;;;;;5105026;28;20305;-83
2022/11/04 07:00:01;;;;;;;1.40;1.30;;;;;;;;;;5103349;28;20204;-84
2022/11/04 07:02:28;;;;;;;0.90;0.90;;;;;;;;;;5105639;28;20210;-82
2022/11/04 07:04:56;;;;;;;0.80;0.80;;;;;;;;;;5105186;28;20263;-83
2022/11/04 07:07:25;;;;;;;1.15;1.00;;;;;;;;;;5092761;28;20253;-83
2022/11/04 07:09:52;;;;;;;0.95;0.95;;;;;;;;;;5083182;28;20203;-83
2022/11/04 07:12:21;;;;;;;0.73;0.70;;;;;;;;;;5082037;28;20286;-82
2022/11/04 07:14:48;;;;;;;0.82;0.82;;;;;;;;;;5081396;28;20225;-82
2022/11/04 07:17:16;;;;;;;1.08;1.08;;;;;;;;;;5088165;23;20313;-82
2022/11/04 07:19:44;;;;;;;3.90;1.13;;;;;;;;;;5066146;28;20222;-82
2022/11/04 07:22:11;;;;;;;0.88;0.88;;;;;;;;;;5065775;28;20214;-83
2022/11/04 07:24:40;;;;;;;3.08;2.78;;;;;;;;;;5082869;28;20197;-82
2022/11/04 07:27:08;;;;;;;4.25;1.48;;;;;;;;;;5070959;28;20262;-84
2022/11/04 07:29:36;;;;;;;1.30;1.20;;;;;;;;;;5063996;28;20245;-84
2022/11/04 07:32:04;;;;;;;1.10;1.00;;;;;;;;;;5064352;28;20205;-84
2022/11/04 07:34:31;;;;;;;0.93;0.88;;;;;;;;;;5065841;28;20245;-84
2022/11/04 07:36:59;;;;;;;1.20;1.08;;;;;;;;;;5066563;28;20252;-83
2022/11/04 07:39:26;;;;;;;1.95;1.25;;;;;;;;;;5064442;28;20217;-84
2022/11/04 07:41:55;;;;;;;1.35;1.08;;;;;;;;;;5065307;28;20236;-83
2022/11/04 07:44:22;;;;;;;1.10;0.93;;;;;;;;;;5063551;28;20240;-82
2022/11/04 07:46:50;;;;;;;0.80;0.80;;;;;;;;;;5066959;28;20269;-84
2022/11/04 07:49:18;;;;;;;0.88;0.88;;;;;;;;;;5076196;28;20708;-83
2022/11/04 07:51:47;;;;;;;0.82;0.82;;;;;;;;;;5081449;28;20240;-82
2022/11/04 07:54:14;;;;;;;1.30;0.73;;;;;;;;;;5081182;28;20708;-83
2022/11/04 07:56:42;;;;;;;0.70;0.70;;;;;;;;;;5081061;28;20654;-84
2022/11/04 07:59:11;;;;;;;0.75;0.73;;;;;;;;;;5080663;28;20596;-85
2022/11/04 08:01:38;;;;;;;0.82;0.82;;;;;;;;;;5079482;28;20193;-85
2022/11/04 08:04:06;;;;;;;0.90;0.90;;;;;;;;;;5078472;28;20204;-84
2022/11/04 08:06:34;;;;;;;2.85;0.95;;;;;;;;;;5075309;28;20292;-84
2022/11/04 08:09:01;;;;;;;2.92;1.17;;;;;;;;;;5059011;28;20218;-83
2022/11/04 08:11:29;;;;;;;0.75;0.75;;;;;;;;;;5062503;28;20233;-84
2022/11/04 08:13:57;;;;;;;0.90;0.90;;;;;;;;;;5058024;28;20300;-83
2022/11/04 08:16:26;;;;;;;0.98;0.98;;;;;;;;;;5072287;28;20225;-84
2022/11/04 08:18:54;;;;;;;1.42;1.15;;;;;;;;;;5058583;28;20316;-83
2022/11/04 08:21:22;;;;;;;1.05;1.05;;;;;;;;;;5058767;28;20228;-84
2022/11/04 08:23:50;;;;;;;0.95;0.95;;;;;;;;;;5058751;28;20656;-85
2022/11/04 08:26:19;;;;;;;1.80;1.70;;;;;;;;;;5060119;28;20198;-85
2022/11/04 08:28:47;;;;;;;1.00;1.00;;;;;;;;;;5060371;28;20283;-84
2022/11/04 08:31:16;;;;;;;1.23;1.05;;;;;;;;;;5061512;28;20793;-82
2022/11/04 08:33:46;;;;;;;2.05;0.93;;;;;;;;;;5061089;28;20658;-83
2022/11/04 08:36:16;;;;;;;0.98;0.90;;;;;;;;;;5061456;28;20225;-83
2022/11/04 08:38:44;;;;;;;0.80;0.80;;;;;;;;;;5061504;28;20225;-84
2022/11/04 08:41:14;;;;;;;2.17;1.25;;;;;;;;;;5064698;28;20233;-84
2022/11/04 08:43:42;;;;;;;1.15;1.05;;;;;;;;;;5065047;28;20232;-82
2022/11/04 08:46:11;;;;;;;1.23;1.13;;;;;;;;;;5065394;28;20260;-83
2022/11/04 08:48:39;;;;;;;1.05;1.02;;;;;;;;;;5060679;28;20317;-80
2022/11/04 08:51:13;;;;;;;1.45;1.10;;;;;;;;;;5055074;28;20205;-80
2022/11/04 08:53:41;;;;;;;1.58;1.10;;;;;;;;;;5056257;28;20275;-80
2022/11/04 08:56:15;;;;;;;1.10;1.00;;;;;;;;;;5058172;28;20279;-80
2022/11/04 08:58:42;;;;;;;0.80;0.80;;;;;;;;;;5059088;28;20287;-80
2022/11/04 09:01:11;;;;;;;1.00;1.00;;;;;;;;;;5059273;28;20229;-80
2022/11/04 09:03:39;;;;;;;0.95;0.90;;;;;;;;;;5065038;28;20201;-80
2022/11/04 09:06:11;;;;;;;1.08;0.98;;;;;;;;;;5078667;28;20734;-82
2022/11/04 09:08:39;;;;;;;0.90;0.90;;;;;;;;;;5038836;28;20214;-82
2022/11/04 09:11:08;;;;;;;2.15;1.20;;;;;;;;;;5039439;28;20214;-82
2022/11/04 09:13:35;;;;;;;1.35;1.15;;;;;;;;;;5039065;28;20206;-82
2022/11/04 09:16:03;;;;;;;0.90;0.80;;;;;;;;;;5041476;28;20226;-80
2022/11/04 09:18:31;;;;;;;1.05;0.77;;;;;;;;;;5058928;28;20316;-84
2022/11/04 09:21:01;;;;;;;1.10;1.00;;;;;;;;;;5059214;28;20280;-80
2022/11/04 09:23:30;;;;;;;1.60;1.00;;;;;;;;;;5058406;28;20656;-81
2022/11/04 09:25:58;;;;;;;6.53;1.17;;;;;;;;;;5058352;28;20240;-81
2022/11/04 09:28:26;;;;;;;0.90;0.90;;;;;;;;;;5058226;28;20659;-82
2022/11/04 09:30:53;;;;;;;0.80;0.80;;;;;;;;;;5058054;28;20280;-80
2022/11/04 09:33:21;;;;;;;1.08;0.95;;;;;;;;;;5057979;28;20190;-82
2022/11/04 09:35:55;;;;;;;3.70;1.08;;;;;;;;;;5057535;28;20289;-82
2022/11/04 09:38:24;;;;;;;1.38;0.90;;;;;;;;;;5058243;28;20221;-80
2022/11/04 09:40:53;;;;;;;1.15;1.05;;;;;;;;;;5058784;28;20221;-81
2022/11/04 09:43:32;;;;;;;1.13;1.00;;;;;;;;;;5058668;28;20289;-81
2022/11/04 09:45:59;;;;;;;1.75;0.88;;;;;;;;;;5058309;28;20236;-81
2022/11/04 09:48:31;;;;;;;1.25;1.00;;;;;;;;;;5057771;28;20225;-82
2022/11/04 09:51:03;;;;;;;1.73;1.05;;;;;;;;;;5059085;28;20674;-83
2022/11/04 09:53:40;;;;;;;1.08;1.00;;;;;;;;;;5057670;28;20205;-81
2022/11/04 09:56:14;;;;;;;0.85;0.85;;;;;;;;;;5057702;28;20219;-82
2022/11/04 09:58:42;;;;;;;0.88;0.75;;;;;;;;;;5057055;28;20872;-82
2022/11/04 10:01:22;;;;;;;3.70;1.05;;;;;;;;;;5057037;28;20748;-81
2022/11/04 10:04:11;;;;;;;1.55;0.98;;;;;;;;;;5064805;28;20189;-81
2022/11/04 10:06:55;;;;;;;1.00;0.90;;;;;;;;;;5072888;28;20240;-82
2022/11/04 10:09:37;;;;;;;2.03;1.10;;;;;;;;;;5056178;28;20309;-82
2022/11/04 10:12:20;;;;;;;1.13;1.02;;;;;;;;;;5056630;28;20300;-82
2022/11/04 10:15:13;;;;;;;1.60;1.48;;;;;;;;;;5056948;28;20205;-83
2022/11/04 10:17:59;;;;;;;1.05;0.85;;;;;;;;;;5055929;28;20226;-82
2022/11/04 10:20:38;;;;;;;1.95;1.00;;;;;;;;;;5056206;28;20182;-81
2022/11/04 10:23:16;;;;;;;1.25;0.90;;;;;;;;;;5056661;28;20649;-82
2022/11/04 10:25:49;;;;;;;1.85;0.90;;;;;;;;;;5056788;28;20681;-82
2022/11/04 10:28:20;;;;;;;3.20;1.00;;;;;;;;;;5056244;28;20305;-82
2022/11/04 10:30:50;;;;;;;0.85;0.77;;;;;;;;;;5056090;28;20218;-81
2022/11/04 10:33:25;;;;;;;2.30;1.48;;;;;;;;;;5052381;28;20244;-82
2022/11/04 10:35:56;;;;;;;1.40;0.90;;;;;;;;;;5045518;28;20209;-84
2022/11/04 10:38:30;;;;;;;0.88;0.77;;;;;;;;;;5055767;28;20229;-84
2022/11/04 10:40:57;;;;;;;1.58;1.10;;;;;;;;;;5056174;28;20217;-83
2022/11/04 10:43:32;;;;;;;1.48;1.05;;;;;;;;;;5056423;28;20777;-83
2022/11/04 10:46:15;;;;;;;1.30;1.00;;;;;;;;;;5057123;28;20657;-83
2022/11/04 10:48:50;;;;;;;1.35;0.90;;;;;;;;;;5056449;28;20308;-81
2022/11/04 10:51:20;;;;;;;1.08;0.88;;;;;;;;;;5056776;28;20204;-83
2022/11/04 10:53:50;;;;;;;0.73;0.73;;;;;;;;;;5056073;28;20236;-84
2022/11/04 10:56:23;;;;;;;0.80;0.65;;;;;;;;;;5056113;28;20634;-82
2022/11/04 10:58:54;;;;;;;1.70;1.00;;;;;;;;;;5055917;28;20312;-82
2022/11/04 11:01:28;;;;;;;1.77;1.10;;;;;;;;;;5056577;28;20182;-84
2022/11/04 11:03:57;;;;;;;3.13;1.02;;;;;;;;;;5056099;28;20249;-84
2022/11/04 11:06:27;;;;;;;0.73;0.73;;;;;;;;;;5056255;28;20288;-84
2022/11/04 11:08:58;;;;;;;2.72;1.52;;;;;;;;;;5056118;28;20316;-84
2022/11/04 11:11:46;;;;;;;1.15;1.00;;;;;;;;;;5056447;28;20220;-84
2022/11/04 11:14:34;;;;;;;1.80;1.27;;;;;;;;;;5056672;28;20249;-83
2022/11/04 11:17:22;;;;;;;1.35;1.20;;;;;;;;;;5055775;28;20343;-82
2022/11/04 11:19:56;;;;;;;5.63;1.40;;;;;;;;;;5053851;28;20282;-84
2022/11/04 11:22:36;;;;;;;1.30;1.20;;;;;;;;;;5056028;28;20598;-84
2022/11/04 11:25:26;;;;;;;2.20;1.10;;;;;;;;;;5055263;28;20272;-83
2022/11/04 11:27:56;;;;;;;4.00;1.80;;;;;;;;;;5056276;28;20225;-84
2022/11/04 11:30:30;;;;;;;2.22;0.93;;;;;;;;;;5057178;28;20236;-84
2022/11/04 11:33:03;;;;;;;3.42;1.35;;;;;;;;;;5056226;28;20182;-84
2022/11/04 11:35:40;;;;;;;0.93;0.82;;;;;;;;;;5056460;28;20181;-82
2022/11/04 11:38:18;;;;;;;1.58;0.82;;;;;;;;;;5055979;28;20263;-85
2022/11/04 11:40:47;;;;;;;2.75;1.23;;;;;;;;;;5056657;28;20182;-85
2022/11/04 11:43:24;;;;;;;1.25;1.02;;;;;;;;;;5055785;28;20202;-82
2022/11/04 11:45:56;;;;;;;1.98;1.00;;;;;;;;;;5056304;28;20280;-85
2022/11/04 11:48:32;;;;;;;2.25;1.25;;;;;;;;;;5054909;28;20224;-83
2022/11/04 11:50:59;;;;;;;1.88;0.85;;;;;;;;;;5056079;28;20284;-84
2022/11/04 11:53:29;;;;;;;2.70;1.30;;;;;;;;;;5055557;28;20249;-85
2022/11/04 11:56:10;;;;;;;3.22;1.77;;;;;;;;;;5055301;28;20201;-84
2022/11/04 11:58:43;;;;;;;1.48;1.30;;;;;;;;;;5055218;28;20275;-84
2022/11/04 12:01:17;;;;;;;3.25;1.50;;;;;;;;;;5055178;28;20205;-83
2022/11/04 12:03:47;;;;;;;1.92;1.15;;;;;;;;;;5055559;28;20280;-81
2022/11/04 12:06:38;;;;;;;1.05;0.88;;;;;;;;;;5056280;28;20268;-83
2022/11/04 12:09:18;;;;;;;1.85;0.82;;;;;;;;;;5055372;28;20309;-83
2022/11/04 12:12:04;;;;;;;3.55;1.20;;;;;;;;;;5056655;28;20181;-84
2022/11/04 12:14:46;;;;;;;2.10;1.23;;;;;;;;;;5056885;28;20192;-85
2022/11/04 12:17:27;;;;;;;1.73;0.90;;;;;;;;;;5056353;28;20284;-82
2022/11/04 12:20:15;;;;;;;1.67;1.08;;;;;;;;;;5056655;28;20326;-84
2022/11/04 12:22:52;;;;;;;1.48;0.75;;;;;;;;;;5057140;28;20208;-84
2022/11/04 12:25:26;;;;;;;1.48;0.93;;;;;;;;;;5057223;28;20185;-83
2022/11/04 12:28:03;;;;;;;1.48;0.90;;;;;;;;;;5059137;28;20308;-82
2022/11/04 12:30:35;;;;;;;1.65;1.05;;;;;;;;;;5061549;28;20190;-83
2022/11/04 12:33:17;;;;;;;1.25;0.70;;;;;;;;;;5061101;28;20286;-84
2022/11/04 12:35:57;;;;;;;0.77;0.68;;;;;;;;;;5061208;28;20276;-84
2022/11/04 12:38:54;;;;;;;0.85;0.85;;;;;;;;;;5060861;28;20316;-85
2022/11/04 12:41:30;;;;;;;3.65;1.73;;;;;;;;;;5061159;28;20327;-85
2022/11/04 12:44:05;;;;;;;1.73;1.05;;;;;;;;;;5060065;28;20231;-85
2022/11/04 12:46:40;;;;;;;1.15;0.63;;;;;;;;;;5060754;28;20283;-83
2022/11/04 12:49:49;;;;;;;2.40;1.00;;;;;;;;;;5060664;28;20311;-84
2022/11/04 12:52:33;;;;;;;1.95;1.00;;;;;;;;;;5061175;28;20210;-85
2022/11/04 12:55:22;;;;;;;2.80;0.80;;;;;;;;;;5060687;28;20233;-85
2022/11/04 12:57:55;;;;;;;2.35;0.95;;;;;;;;;;5060119;28;20428;-85
2022/11/04 13:00:26;;;;;;;2.17;1.38;;;;;;;;;;5059889;28;20244;-85
2022/11/04 13:03:01;;;;;;;1.88;1.13;;;;;;;;;;5059794;28;20209;-84
2022/11/04 13:05:42;;;;;;;1.48;1.00;;;;;;;;;;5060553;28;20192;-83
2022/11/04 13:08:18;;;;;;;2.60;1.38;;;;;;;;;;5060100;28;20280;-85
2022/11/04 13:10:52;;;;;;;1.30;1.15;;;;;;;;;;5059337;28;20213;-85
2022/11/04 13:13:26;;;;;;;3.92;1.05;;;;;;;;;;5059558;28;20178;-85
2022/11/04 13:15:58;;;;;;;2.90;1.10;;;;;;;;;;5059199;28;20190;-85
2022/11/04 13:18:32;;;;;;;1.33;1.23;;;;;;;;;;5058775;28;20286;-85
2022/11/04 13:21:04;;;;;;;1.15;1.00;;;;;;;;;;5060031;28;20181;-85
2022/11/04 13:23:39;;;;;;;3.10;0.95;;;;;;;;;;5059001;28;20210;-84
2022/11/04 13:26:11;;;;;;;1.45;0.90;;;;;;;;;;5058667;28;20272;-82
2022/11/04 13:28:40;;;;;;;1.20;0.75;;;;;;;;;;5057934;28;20309;-84
2022/11/04 13:31:15;;;;;;;0.77;0.77;;;;;;;;;;5058347;28;20204;-84
2022/11/04 13:33:51;;;;;;;0.65;0.60;;;;;;;;;;5058385;28;20193;-84
2022/11/04 13:36:33;;;;;;;1.08;0.68;;;;;;;;;;5058412;28;20209;-84
2022/11/04 13:39:06;;;;;;;1.60;0.90;;;;;;;;;;5057430;28;20284;-84
2022/11/04 13:42:00;;;;;;;1.05;0.70;;;;;;;;;;5057681;28;20182;-84
2022/11/04 13:44:29;;;;;;;1.00;0.90;;;;;;;;;;5058028;28;20240;-85
2022/11/04 13:47:01;;;;;;;0.85;0.70;;;;;;;;;;5057762;28;20311;-84
2022/11/04 13:49:32;;;;;;;1.17;0.77;;;;;;;;;;5058613;28;20252;-84
2022/11/04 13:52:08;;;;;;;1.55;1.00;;;;;;;;;;5057621;28;20646;-82
2022/11/04 13:54:40;;;;;;;1.27;0.80;;;;;;;;;;5057683;28;20614;-82
2022/11/04 13:57:12;;;;;;;0.98;0.90;;;;;;;;;;5057624;28;20630;-81
2022/11/04 13:59:41;;;;;;;0.60;0.60;;;;;;;;;;5057751;28;20737;-84
2022/11/04 14:02:34;;;;;;;1.27;0.50;;;;;;;;;;5058119;28;20213;-83
2022/11/04 14:06:02;;;;;;;0.80;0.80;;;;;;;;;;5059299;28;20289;-84
2022/11/04 14:08:31;;;;;;;1.83;1.42;;;;;;;;;;4978191;28;20227;-84
2022/11/04 14:11:11;;;;;;;1.02;0.93;;;;;;;;;;5045863;28;20293;-83
2022/11/04 14:14:05;;;;;;;2.97;2.25;;;;;;;;;;5058805;28;20186;-84
2022/11/04 14:16:44;;;;;;;2.75;2.20;;;;;;;;;;5058858;28;20229;-83
2022/11/04 14:19:57;;;;;;;5.30;3.63;;;;;;;;;;5058833;28;20312;-83
2022/11/04 14:22:33;;;;;;;2.72;2.00;;;;;;;;;;5041001;28;20638;-84
2022/11/04 14:25:19;;;;;;;1.42;1.33;;;;;;;;;;5058512;28;20606;-81
2022/11/04 14:27:48;;;;;;;0.77;0.77;;;;;;;;;;5058525;28;20226;-82
2022/11/04 14:30:42;;;;;;;1.63;1.45;;;;;;;;;;5058317;28;20758;-83
2022/11/04 14:33:31;;;;;;;1.85;1.65;;;;;;;;;;5058062;28;20186;-82
2022/11/04 14:36:17;;;;;;;2.03;1.70;;;;;;;;;;5058783;28;20276;-84
2022/11/04 14:38:44;;;;;;;3.03;1.80;;;;;;;;;;5058738;28;20245;-84
2022/11/04 14:41:21;;;;;;;1.80;1.67;;;;;;;;;;5058555;28;20265;-84
2022/11/04 14:43:49;;;;;;;2.10;1.90;;;;;;;;;;5059466;28;20189;-83
2022/11/04 14:46:22;;;;;;;2.95;1.60;;;;;;;;;;5058920;28;20213;-83
2022/11/04 14:48:54;;;;;;;2.03;1.73;;;;;;;;;;5079008;23;20221;-81
2022/11/04 14:51:26;;;;;;;3.38;1.30;;;;;;;;;;5076889;28;20201;-82
2022/11/04 14:54:03;;;;;;;2.88;2.05;;;;;;;;;;5078224;28;20197;-82
2022/11/04 14:56:33;;;;;;;4.28;2.63;;;;;;;;;;5077406;28;20249;-82
2022/11/04 14:59:04;;;;;;;3.60;2.70;;;;;;;;;;5077310;28;20224;-82
2022/11/04 15:01:34;;;;;;;2.33;2.03;;;;;;;;;;5077679;28;20201;-82
2022/11/04 15:04:07;;;;;;;2.45;2.25;;;;;;;;;;5078612;28;20752;-82
2022/11/04 15:06:35;;;;;;;2.95;1.98;;;;;;;;;;5078087;28;20623;-83
2022/11/04 15:09:02;;;;;;;1.90;1.67;;;;;;;;;;5077895;28;20300;-83
2022/11/04 15:14:20;;;;;;;1.23;1.13;;;;;;;;;;5078034;28;20196;-82
2022/11/04 15:16:50;;;;;;;1.67;0.90;;;;;;;;;;5077068;28;20664;-82
2022/11/04 15:19:25;;;;;;;1.30;1.20;;;;;;;;;;5076943;28;20225;-82
2022/11/04 15:21:52;;;;;;;3.30;1.40;;;;;;;;;;5078254;28;20207;-82
2022/11/04 15:24:20;;;;;;;4.53;1.80;;;;;;;;;;5076851;28;20215;-83
2022/11/04 15:26:52;;;;;;;2.40;1.20;;;;;;;;;;5077553;28;20347;-83
2022/11/04 15:29:23;;;;;;;2.53;1.58;;;;;;;;;;5076463;28;20215;-83
2022/11/04 15:31:56;;;;;;;1.45;1.30;;;;;;;;;;5097629;28;20196;-83
2022/11/04 15:34:25;;;;;;;2.10;1.33;;;;;;;;;;5096420;28;20326;-82
2022/11/04 15:36:54;;;;;;;2.38;1.50;;;;;;;;;;5090418;28;20225;-83
2022/11/04 15:39:23;;;;;;;1.67;1.25;;;;;;;;;;5075627;28;20220;-83
2022/11/04 15:44:46;;;;;;;2.33;1.20;;;;;;;;;;5076910;28;20204;-84
2022/11/04 15:47:26;;;;;;;3.58;1.60;;;;;;;;;;5078552;28;20223;-83
2022/11/04 15:50:01;;;;;;;2.30;1.35;;;;;;;;;;5076270;28;20209;-83